This is the latest recevied weather packets stored in our database for station/object LRSM. If no packets are shown the sender has not sent any weather packets the latest 10 day(s).
| Time | Temp. | Humidity | Pressure | Rain* | Wind** | Luminosity | Snow |
|---|---|---|---|---|---|---|---|
| 1777755812 | 10° C | 47% | 1022 hPa | - | - | - | - |
| 1777754912 | 10° C | 47% | 1022 hPa | - | - | - | - |
| 1777754012 | 10° C | 47% | 1022 hPa | - | - | - | - |
| 1777753113 | 10° C | 47% | 1021 hPa | - | - | - | - |
| 1777752212 | 10° C | 47% | 1021 hPa | - | - | - | - |
| 1777751312 | 11.11° C | 47% | 1021 hPa | - | - | - | - |
| 1777750413 | 11.11° C | 47% | 1021 hPa | - | - | - | - |
| 1777749512 | 12.78° C | 41% | 1021 hPa | - | - | - | - |
| 1777748612 | 12.78° C | 41% | 1021 hPa | - | - | - | - |
| 1777747713 | 13.89° C | 39% | 1021 hPa | - | - | - | - |
| 1777746812 | 13.89° C | 39% | 1021 hPa | - | - | - | - |
| 1777745913 | 13.89° C | 39% | 1020 hPa | - | - | - | - |
| 1777745012 | 13.89° C | 39% | 1020 hPa | - | - | - | - |
| 1777744112 | 16.11° C | 36% | 1020 hPa | - | - | - | - |
| 1777743212 | 16.11° C | 36% | 1020 hPa | - | - | - | - |
| 1777742312 | 17.78° C | 32% | 1020 hPa | - | - | - | - |
| 1777741412 | 17.78° C | 32% | 1020 hPa | - | - | - | - |
| 1777740510 | 18.89° C | 28% | 1020 hPa | - | - | - | - |
| 1777739612 | 18.89° C | 28% | 1020 hPa | - | - | - | - |
| 1777738712 | 20° C | 26% | 1020 hPa | - | - | - | - |
| 1777737813 | 20° C | 26% | 1020 hPa | - | - | - | - |
| 1777736918 | 20° C | 28% | 1020 hPa | - | - | - | - |
| 1777736013 | 20° C | 28% | 1020 hPa | - | - | - | - |
| 1777735112 | 18.89° C | 30% | 1020 hPa | - | - | - | - |
| 1777734212 | 18.89° C | 30% | 1020 hPa | - | - | - | - |
* Rain since midnight (hover to see other rain measurements)
** Current wind speed in m/s (hover to see current wind gust speed)